createdAt,value
2018-01-29T00:01:23.004Z,8.90
2018-01-29T00:03:50.472Z,8.90
2018-01-29T00:06:17.905Z,8.90
2018-01-29T00:08:54.325Z,8.90
2018-01-29T00:11:21.760Z,8.90
2018-01-29T00:13:54.651Z,8.90
2018-01-29T00:16:22.167Z,8.80
2018-01-29T00:18:49.599Z,8.80
2018-01-29T00:21:17.833Z,8.80
2018-01-29T00:23:45.292Z,8.80
2018-01-29T00:26:12.735Z,8.80
2018-01-29T00:28:40.520Z,8.70
2018-01-29T00:31:07.955Z,8.70
2018-01-29T00:33:53.504Z,8.70
2018-01-29T00:36:21.704Z,8.70
2018-01-29T00:38:49.172Z,8.70
2018-01-29T00:41:16.595Z,8.70
2018-01-29T00:43:44.825Z,8.70
2018-01-29T00:46:12.648Z,8.70
2018-01-29T00:48:40.080Z,8.70
2018-01-29T00:51:08.280Z,8.70
2018-01-29T00:53:35.984Z,8.70
2018-01-29T00:56:03.411Z,8.70
2018-01-29T01:07:09.672Z,8.70
2018-01-29T01:09:37.306Z,8.60
2018-01-29T01:12:04.780Z,8.60
2018-01-29T01:14:32.240Z,8.60
2018-01-29T01:16:59.704Z,8.60
2018-01-29T01:19:27.141Z,8.60
2018-01-29T01:21:54.571Z,8.60
2018-01-29T01:24:22.211Z,8.60
2018-01-29T01:26:50.418Z,8.60
2018-01-29T01:29:17.847Z,8.60
2018-01-29T01:31:46.116Z,8.60
2018-01-29T01:34:13.879Z,8.60
2018-01-29T01:36:41.307Z,8.70
2018-01-29T01:39:08.740Z,8.70
2018-01-29T01:41:36.525Z,8.70
2018-01-29T01:44:03.980Z,8.70
2018-01-29T01:46:31.420Z,8.60
2018-01-29T01:49:02.616Z,8.70
2018-01-29T01:51:30.043Z,8.70
2018-01-29T01:53:57.529Z,8.70
2018-01-29T01:56:24.968Z,8.70
2018-01-29T01:58:54.397Z,8.70
2018-01-29T02:01:22.597Z,8.70
2018-01-29T02:03:50.053Z,8.70
2018-01-29T02:06:17.563Z,8.70
2018-01-29T02:08:44.996Z,8.70
2018-01-29T02:11:12.468Z,8.70
2018-01-29T02:13:46.664Z,8.70
2018-01-29T02:16:14.116Z,8.70
2018-01-29T02:18:41.543Z,8.70
2018-01-29T02:21:10.080Z,8.70
2018-01-29T02:23:37.512Z,8.70
2018-01-29T02:26:04.940Z,8.70
2018-01-29T02:28:33.303Z,8.70
2018-01-29T02:31:00.732Z,8.70
2018-01-29T02:33:28.192Z,8.70
2018-01-29T02:35:55.623Z,8.70
2018-01-29T02:38:23.072Z,8.70
2018-01-29T02:40:50.499Z,8.70
2018-01-29T02:43:18.783Z,8.70
2018-01-29T02:45:46.981Z,8.70
2018-01-29T02:48:14.446Z,8.70
2018-01-29T02:50:41.908Z,8.70
2018-01-29T02:53:09.363Z,8.70
2018-01-29T02:55:36.797Z,8.80
2018-01-29T02:58:04.364Z,8.70
2018-01-29T03:00:31.797Z,8.70
2018-01-29T03:03:00.968Z,8.80
2018-01-29T03:05:28.448Z,8.80
2018-01-29T03:07:56.648Z,8.70
2018-01-29T03:10:24.077Z,8.80
2018-01-29T03:12:52.148Z,8.80
2018-01-29T03:15:19.572Z,8.80
2018-01-29T03:17:47.009Z,8.80
2018-01-29T03:20:15.621Z,8.80
2018-01-29T03:22:43.283Z,8.70
2018-01-29T03:25:28.822Z,8.70
2018-01-29T03:28:08.318Z,8.70
2018-01-29T03:30:35.756Z,8.70
2018-01-29T03:33:25.932Z,8.70
2018-01-29T03:35:53.424Z,8.70
2018-01-29T03:38:20.860Z,8.70
2018-01-29T03:40:48.319Z,8.70
2018-01-29T03:43:15.776Z,8.70
2018-01-29T03:45:47.249Z,8.70
2018-01-29T03:48:14.728Z,8.70
2018-01-29T03:50:42.929Z,8.70
2018-01-29T03:53:10.364Z,8.70
2018-01-29T03:55:38.720Z,8.70
2018-01-29T03:58:06.184Z,8.70
2018-01-29T04:00:33.620Z,8.70
2018-01-29T04:03:01.079Z,8.70
2018-01-29T04:14:09.848Z,8.70
2018-01-29T04:16:37.330Z,8.70
2018-01-29T04:19:04.756Z,8.70
2018-01-29T04:21:47.351Z,8.70
2018-01-29T04:24:14.813Z,8.70
2018-01-29T04:26:42.263Z,8.70
2018-01-29T04:29:09.756Z,8.70
2018-01-29T04:31:37.196Z,8.70
2018-01-29T04:34:05.635Z,8.70
2018-01-29T04:36:33.836Z,8.70
2018-01-29T04:39:01.294Z,8.70
2018-01-29T04:41:28.724Z,8.70
2018-01-29T04:43:56.965Z,8.70
2018-01-29T04:46:25.347Z,8.70
2018-01-29T04:48:52.795Z,8.80
2018-01-29T04:51:20.557Z,8.80
2018-01-29T04:53:47.993Z,8.70
2018-01-29T04:56:15.424Z,8.70
2018-01-29T04:58:42.881Z,8.70
2018-01-29T05:01:10.644Z,8.70
2018-01-29T05:03:38.076Z,8.70
2018-01-29T05:06:05.508Z,8.70
2018-01-29T05:08:33.060Z,8.70
2018-01-29T05:11:00.521Z,8.70
2018-01-29T05:13:28.032Z,8.70
2018-01-29T05:15:56.233Z,8.80
2018-01-29T05:18:23.686Z,8.70
2018-01-29T05:20:51.116Z,8.70
2018-01-29T05:23:19.751Z,8.70
2018-01-29T05:25:47.177Z,8.70
2018-01-29T05:28:15.135Z,8.70
2018-01-29T05:30:45.692Z,8.70
2018-01-29T05:33:13.150Z,8.70
2018-01-29T05:35:55.459Z,8.70
2018-01-29T05:38:22.921Z,8.80
2018-01-29T05:40:50.367Z,8.80
2018-01-29T05:43:18.156Z,8.70
2018-01-29T05:45:45.621Z,8.80
2018-01-29T05:48:13.052Z,8.80
2018-01-29T05:50:40.631Z,8.80
2018-01-29T05:53:08.096Z,8.80
2018-01-29T05:55:35.532Z,8.80
2018-01-29T05:58:02.999Z,8.70
2018-01-29T06:00:30.436Z,8.70
2018-01-29T06:05:58.441Z,8.70
2018-01-29T06:08:26.104Z,8.70
2018-01-29T06:10:54.291Z,8.80
2018-01-29T06:13:21.769Z,8.70
2018-01-29T06:15:49.220Z,8.80
2018-01-29T06:18:16.640Z,8.80
2018-01-29T06:20:44.097Z,8.70
2018-01-29T06:26:20.320Z,8.70
2018-01-29T06:28:47.771Z,8.70
2018-01-29T06:31:17.176Z,8.70
2018-01-29T06:33:44.632Z,8.80
2018-01-29T06:36:12.380Z,8.70
2018-01-29T06:38:39.816Z,8.80
2018-01-29T06:41:07.252Z,8.80
2018-01-29T06:43:34.777Z,8.80
2018-01-29T06:46:02.664Z,8.80
2018-01-29T06:48:30.864Z,8.80
2018-01-29T06:50:58.300Z,8.80
2018-01-29T06:53:26.528Z,8.80
2018-01-29T06:55:53.964Z,8.80
2018-01-29T06:58:21.448Z,8.80
2018-01-29T07:00:48.885Z,8.80
2018-01-29T07:03:20.152Z,8.80
2018-01-29T07:05:48.582Z,8.80
2018-01-29T07:08:16.828Z,8.80
2018-01-29T07:16:40.889Z,8.80
2018-01-29T07:19:08.316Z,8.80
2018-01-29T07:21:38.584Z,8.80
2018-01-29T07:24:06.020Z,8.80
2018-01-29T07:26:33.864Z,8.80
2018-01-29T07:29:02.071Z,8.90
2018-01-29T07:31:29.511Z,8.80
2018-01-29T07:33:57.731Z,8.90
2018-01-29T07:36:26.409Z,8.80
2018-01-29T07:38:53.888Z,8.80
2018-01-29T07:41:22.907Z,8.90
2018-01-29T07:43:51.118Z,8.90
2018-01-29T07:46:19.702Z,8.90
2018-01-29T07:48:47.177Z,8.90
2018-01-29T07:51:14.626Z,8.80
2018-01-29T07:53:42.061Z,8.80
2018-01-29T07:56:09.516Z,8.80
2018-01-29T07:58:36.954Z,8.80
2018-01-29T08:01:04.386Z,8.80
2018-01-29T08:03:31.949Z,8.80
2018-01-29T08:05:59.397Z,8.90
2018-01-29T08:08:26.861Z,8.90
2018-01-29T08:10:54.325Z,8.90
2018-01-29T08:13:21.788Z,8.80
2018-01-29T08:15:49.230Z,8.80
2018-01-29T08:18:16.688Z,8.80
2018-01-29T08:20:44.222Z,8.80
2018-01-29T08:23:11.652Z,8.80
2018-01-29T08:25:39.400Z,8.90
2018-01-29T08:28:07.610Z,8.90
2018-01-29T08:30:35.048Z,8.80
2018-01-29T08:33:02.513Z,8.90
2018-01-29T08:35:29.969Z,8.80
2018-01-29T08:37:57.425Z,8.80
2018-01-29T08:40:25.689Z,8.90
2018-01-29T08:42:55.837Z,8.80
2018-01-29T08:45:23.255Z,8.80
2018-01-29T08:47:50.689Z,8.90
2018-01-29T08:50:18.159Z,8.90
2018-01-29T08:52:45.594Z,8.90
2018-01-29T08:55:13.144Z,8.90
2018-01-29T08:57:40.637Z,8.90
2018-01-29T09:00:08.492Z,8.90
2018-01-29T09:02:35.938Z,8.90
2018-01-29T09:05:03.376Z,8.90
2018-01-29T09:07:30.836Z,8.90
2018-01-29T09:09:58.279Z,8.90
2018-01-29T09:12:26.181Z,8.90
2018-01-29T09:14:53.617Z,8.90
2018-01-29T09:17:21.063Z,8.90
2018-01-29T09:19:48.765Z,8.90
2018-01-29T09:22:16.265Z,8.90
2018-01-29T09:24:44.465Z,8.90
2018-01-29T09:27:11.976Z,8.90
2018-01-29T09:29:39.405Z,8.90
2018-01-29T09:32:06.836Z,8.90
2018-01-29T09:34:34.301Z,8.90
2018-01-29T09:37:01.743Z,8.90
2018-01-29T09:39:29.351Z,8.90
2018-01-29T09:41:56.815Z,8.90
2018-01-29T09:44:24.273Z,8.90
2018-01-29T09:46:52.025Z,8.90
2018-01-29T09:49:19.461Z,8.90
2018-01-29T09:51:46.905Z,8.90
2018-01-29T09:54:14.689Z,8.90
2018-01-29T09:56:42.129Z,8.90
2018-01-29T09:59:09.570Z,8.90
2018-01-29T10:01:37.177Z,8.90
2018-01-29T10:04:04.612Z,8.90
2018-01-29T10:06:32.072Z,8.90
2018-01-29T10:08:59.506Z,8.90
2018-01-29T10:11:27.000Z,8.90
2018-01-29T10:13:54.592Z,9.00
2018-01-29T10:16:22.846Z,9.00
2018-01-29T10:18:50.264Z,9.00
2018-01-29T10:21:19.084Z,9.00
2018-01-29T10:23:46.516Z,9.00
2018-01-29T10:26:13.972Z,9.00
2018-01-29T10:28:41.865Z,9.00
2018-01-29T10:31:09.292Z,9.00
2018-01-29T10:33:36.730Z,9.00
2018-01-29T10:36:04.952Z,9.00
2018-01-29T10:38:37.324Z,9.00
2018-01-29T10:41:04.760Z,9.00
2018-01-29T10:43:32.228Z,9.00
2018-01-29T10:45:59.800Z,9.00
2018-01-29T10:48:27.237Z,9.10
2018-01-29T10:50:54.692Z,9.10
2018-01-29T10:53:22.172Z,9.00
2018-01-29T10:55:49.613Z,9.10
2018-01-29T10:58:17.051Z,9.10
2018-01-29T11:00:50.341Z,9.10
2018-01-29T11:03:17.771Z,9.10
2018-01-29T11:05:46.372Z,9.10
2018-01-29T11:08:14.579Z,9.10
2018-01-29T11:10:42.017Z,9.10
2018-01-29T11:13:09.476Z,9.10
2018-01-29T11:15:39.068Z,9.10
2018-01-29T11:18:07.267Z,9.10
2018-01-29T11:20:39.604Z,9.10
2018-01-29T11:23:07.004Z,9.10
2018-01-29T11:25:39.332Z,9.10
2018-01-29T11:28:07.524Z,9.10
2018-01-29T11:30:35.161Z,9.10
2018-01-29T11:33:02.604Z,9.10
2018-01-29T11:35:30.042Z,9.10
2018-01-29T11:37:57.521Z,9.10
2018-01-29T11:40:24.948Z,9.10
2018-01-29T11:42:52.438Z,9.10
2018-01-29T11:45:23.708Z,9.20
2018-01-29T11:47:52.140Z,9.20
2018-01-29T11:50:19.592Z,9.10
2018-01-29T11:52:47.029Z,9.20
2018-01-29T11:55:14.535Z,9.20
2018-01-29T11:57:43.011Z,9.20
2018-01-29T12:00:10.453Z,9.20
2018-01-29T12:02:38.056Z,9.20
2018-01-29T12:05:06.260Z,9.20
2018-01-29T12:07:33.816Z,9.20
2018-01-29T12:10:02.024Z,9.20
2018-01-29T12:12:29.457Z,9.20
2018-01-29T12:14:56.966Z,9.20
2018-01-29T12:17:24.395Z,9.20
2018-01-29T12:19:54.628Z,9.20
2018-01-29T12:22:22.068Z,9.20
2018-01-29T12:24:49.516Z,9.20
2018-01-29T12:27:16.975Z,9.20
2018-01-29T12:29:44.440Z,9.20
2018-01-29T12:32:11.868Z,9.20
2018-01-29T12:34:39.332Z,9.20
2018-01-29T12:37:07.776Z,9.20
2018-01-29T12:39:35.269Z,9.20
2018-01-29T12:42:02.712Z,9.20
2018-01-29T12:44:30.938Z,9.20
2018-01-29T12:46:58.387Z,9.20
2018-01-29T12:49:26.160Z,9.20
2018-01-29T12:51:53.596Z,9.20
2018-01-29T12:54:21.036Z,9.20
2018-01-29T12:56:48.697Z,9.20
2018-01-29T12:59:16.155Z,9.20
2018-01-29T13:01:44.688Z,9.20
2018-01-29T13:04:12.143Z,9.20
2018-01-29T13:06:39.580Z,9.20
2018-01-29T13:09:07.036Z,9.20
2018-01-29T13:11:34.500Z,9.20
2018-01-29T13:14:02.325Z,9.20
2018-01-29T13:16:30.526Z,9.20
2018-01-29T13:18:57.956Z,9.20
2018-01-29T13:21:26.180Z,9.20
2018-01-29T13:23:53.628Z,9.20
2018-01-29T13:26:21.464Z,9.20
2018-01-29T13:28:48.912Z,9.20
2018-01-29T13:31:17.110Z,9.20
2018-01-29T13:33:44.701Z,9.10
2018-01-29T13:36:12.156Z,9.20
2018-01-29T13:38:39.613Z,9.10
2018-01-29T13:41:07.068Z,9.20
2018-01-29T13:43:39.680Z,9.20
2018-01-29T13:46:24.205Z,9.20
2018-01-29T13:48:51.780Z,9.10
2018-01-29T13:51:19.264Z,9.20
2018-01-29T13:53:47.748Z,9.10
2018-01-29T13:56:15.191Z,9.10
2018-01-29T13:58:42.684Z,9.10
2018-01-29T14:01:10.156Z,9.10
2018-01-29T14:03:37.590Z,9.10
2018-01-29T14:06:05.042Z,9.10
2018-01-29T14:08:33.301Z,9.10
2018-01-29T14:11:00.740Z,9.10
2018-01-29T14:13:28.176Z,9.10
2018-01-29T14:15:57.733Z,9.10
2018-01-29T14:18:25.933Z,9.10
2018-01-29T14:20:53.409Z,9.10
2018-01-29T14:23:20.844Z,9.10
2018-01-29T14:25:53.126Z,9.00
2018-01-29T14:28:20.588Z,9.00
2018-01-29T14:30:48.048Z,9.00
2018-01-29T14:33:23.532Z,9.00
2018-01-29T14:35:50.972Z,9.00
2018-01-29T14:38:18.430Z,9.00
2018-01-29T14:40:45.901Z,9.00
2018-01-29T14:43:13.348Z,9.00
2018-01-29T14:45:40.807Z,9.00
2018-01-29T14:48:08.256Z,9.00
2018-01-29T14:50:35.694Z,9.00
2018-01-29T14:53:03.172Z,9.00
2018-01-29T14:55:30.599Z,9.00
2018-01-29T14:57:58.066Z,9.00
2018-01-29T15:00:25.532Z,9.00
2018-01-29T15:02:52.991Z,9.00
2018-01-29T15:05:20.428Z,8.90
2018-01-29T15:07:48.020Z,8.90
2018-01-29T15:10:15.456Z,8.90
2018-01-29T15:12:42.925Z,8.90
2018-01-29T15:15:10.353Z,8.90
2018-01-29T15:17:37.808Z,8.90
2018-01-29T15:20:05.235Z,8.90
2018-01-29T15:22:50.755Z,8.90
2018-01-29T15:25:18.180Z,8.90
2018-01-29T15:27:45.608Z,8.90
2018-01-29T15:30:13.062Z,8.90
2018-01-29T15:32:40.517Z,8.90
2018-01-29T15:35:08.258Z,8.90
2018-01-29T15:37:35.687Z,8.90
2018-01-29T15:40:16.768Z,8.80
2018-01-29T15:42:44.224Z,8.80
2018-01-29T15:45:12.446Z,8.80
2018-01-29T15:47:40.317Z,8.80
2018-01-29T15:50:07.750Z,8.80
2018-01-29T15:52:35.181Z,8.70
2018-01-29T15:55:03.404Z,8.70
2018-01-29T16:00:25.152Z,8.70
2018-01-29T16:02:52.633Z,8.70
2018-01-29T16:05:20.068Z,8.70
2018-01-29T16:07:47.542Z,8.70
2018-01-29T16:10:14.975Z,8.70
2018-01-29T16:15:33.184Z,8.70
2018-01-29T16:18:01.409Z,8.70
2018-01-29T16:20:28.853Z,8.70
2018-01-29T16:22:56.332Z,8.70
2018-01-29T16:25:23.784Z,8.70
2018-01-29T16:27:51.444Z,8.70
2018-01-29T16:30:18.888Z,8.70
2018-01-29T16:32:47.165Z,8.70
2018-01-29T16:35:14.605Z,8.70
2018-01-29T16:37:42.074Z,8.70
2018-01-29T16:40:09.521Z,8.60
2018-01-29T16:42:36.980Z,8.60
2018-01-29T16:45:04.428Z,8.50
2018-01-29T16:47:32.152Z,8.50
2018-01-29T16:49:59.594Z,8.40
2018-01-29T16:52:29.027Z,8.40
2018-01-29T16:54:56.652Z,8.40
2018-01-29T16:57:24.420Z,8.40
2018-01-29T16:59:51.872Z,8.30
2018-01-29T17:02:19.310Z,8.30
2018-01-29T17:04:46.773Z,8.30
2018-01-29T17:10:04.908Z,8.30
2018-01-29T17:12:33.131Z,8.30
2018-01-29T17:15:00.581Z,8.30
2018-01-29T17:17:33.312Z,8.30
2018-01-29T17:20:01.512Z,8.30
2018-01-29T17:22:28.943Z,8.30
2018-01-29T17:24:57.221Z,8.30
2018-01-29T17:27:24.671Z,8.20
2018-01-29T17:29:53.729Z,8.20
2018-01-29T17:32:21.168Z,8.20
2018-01-29T17:34:48.596Z,8.20
2018-01-29T17:37:16.050Z,8.30
2018-01-29T17:39:44.248Z,8.20
2018-01-29T17:42:11.712Z,8.20
2018-01-29T17:44:39.148Z,8.20
2018-01-29T17:47:06.572Z,8.20
2018-01-29T17:49:34.475Z,8.20
2018-01-29T17:52:06.908Z,8.20
2018-01-29T17:54:34.365Z,8.20
2018-01-29T17:57:01.832Z,8.20
2018-01-29T17:59:29.300Z,8.20
2018-01-29T18:01:57.508Z,8.20
2018-01-29T18:04:24.974Z,8.20
2018-01-29T18:06:52.408Z,8.20
2018-01-29T18:09:19.917Z,8.20
2018-01-29T18:11:47.380Z,8.20
2018-01-29T18:14:32.704Z,8.20
2018-01-29T18:17:00.160Z,8.20
2018-01-29T18:19:27.710Z,8.20
2018-01-29T18:24:51.950Z,8.10
2018-01-29T18:27:20.362Z,8.10
2018-01-29T18:29:47.840Z,8.20
2018-01-29T18:32:17.273Z,8.10
2018-01-29T18:34:45.646Z,8.10
2018-01-29T18:37:13.414Z,8.10
2018-01-29T18:39:40.854Z,8.10
2018-01-29T18:42:09.065Z,8.10
2018-01-29T18:44:36.656Z,8.10
2018-01-29T18:47:04.124Z,8.10
2018-01-29T18:49:31.560Z,8.10
2018-01-29T18:51:59.020Z,8.10
2018-01-29T18:54:26.545Z,8.10
2018-01-29T18:56:54.016Z,8.10
2018-01-29T18:59:22.346Z,8.10
2018-01-29T19:01:49.865Z,8.10
2018-01-29T19:04:17.306Z,8.10
2018-01-29T19:06:44.750Z,8.10
2018-01-29T19:09:12.212Z,8.10
2018-01-29T19:11:40.612Z,8.10
2018-01-29T19:14:08.054Z,8.10
2018-01-29T19:16:35.488Z,8.20
2018-01-29T19:19:07.809Z,8.20
2018-01-29T19:21:35.388Z,8.10
2018-01-29T19:24:02.829Z,8.10
2018-01-29T19:29:24.688Z,8.20
2018-01-29T19:31:52.210Z,8.20
2018-01-29T19:34:19.645Z,8.20
2018-01-29T19:36:47.421Z,8.20
2018-01-29T19:39:14.848Z,8.20
2018-01-29T19:41:43.052Z,8.20
2018-01-29T19:44:15.404Z,8.20
2018-01-29T19:46:43.622Z,8.20
2018-01-29T19:49:11.056Z,8.20
2018-01-29T19:51:38.640Z,8.20
2018-01-29T19:54:06.072Z,8.20
2018-01-29T19:56:33.525Z,8.20
2018-01-29T19:59:00.958Z,8.20
2018-01-29T20:01:28.428Z,8.20
2018-01-29T20:03:56.653Z,8.10
2018-01-29T20:06:24.112Z,8.10
2018-01-29T20:08:51.540Z,8.10
2018-01-29T20:11:19.084Z,8.00
2018-01-29T20:13:47.312Z,8.00
2018-01-29T20:16:15.073Z,8.00
2018-01-29T20:18:45.516Z,8.00
2018-01-29T20:21:12.951Z,7.90
2018-01-29T20:23:44.173Z,7.80
2018-01-29T20:26:11.636Z,7.80
2018-01-29T20:28:39.072Z,7.70
2018-01-29T20:31:06.567Z,7.70
2018-01-29T20:33:34.008Z,7.60
2018-01-29T20:36:02.620Z,7.60
2018-01-29T20:38:30.064Z,7.60
2018-01-29T20:40:57.509Z,7.50
2018-01-29T20:43:24.968Z,7.50
2018-01-29T20:45:52.400Z,7.50
2018-01-29T20:48:20.593Z,7.50
2018-01-29T20:50:48.301Z,7.50
2018-01-29T20:53:15.740Z,7.50
2018-01-29T20:55:43.501Z,7.50
2018-01-29T20:58:10.940Z,7.50
2018-01-29T21:00:38.384Z,7.50
2018-01-29T21:03:05.840Z,7.50
2018-01-29T21:05:33.264Z,7.40
2018-01-29T21:08:00.784Z,7.40
2018-01-29T21:10:28.216Z,7.30
2018-01-29T21:12:55.696Z,7.30
2018-01-29T21:15:23.122Z,7.30
2018-01-29T21:17:50.568Z,7.20
2018-01-29T21:20:18.792Z,7.20
2018-01-29T21:22:46.219Z,7.20
2018-01-29T21:36:36.313Z,6.90
2018-01-29T21:39:03.772Z,6.90
2018-01-29T21:41:31.532Z,6.80
2018-01-29T21:43:58.960Z,6.80
2018-01-29T21:46:26.761Z,6.70
2018-01-29T21:48:55.152Z,6.70
2018-01-29T21:51:22.576Z,6.70
2018-01-29T21:53:50.044Z,6.60
2018-01-29T21:56:17.476Z,6.60
2018-01-29T21:58:44.912Z,6.60
2018-01-29T22:12:45.692Z,6.30
2018-01-29T22:18:28.034Z,6.20
2018-01-29T22:20:55.484Z,6.20
2018-01-29T22:23:23.224Z,6.10
2018-01-29T22:25:50.657Z,6.10
2018-01-29T22:28:18.084Z,6.10
2018-01-29T22:30:46.607Z,6.10
2018-01-29T22:33:14.036Z,6.00
2018-01-29T22:35:42.240Z,6.00
2018-01-29T22:38:09.776Z,6.00
2018-01-29T22:40:37.976Z,6.00
2018-01-29T22:43:05.404Z,6.00
2018-01-29T22:45:33.620Z,5.90
2018-01-29T22:48:01.052Z,5.90
2018-01-29T22:50:28.980Z,5.90
2018-01-29T22:52:56.412Z,5.90
2018-01-29T22:55:23.835Z,5.90
2018-01-29T22:57:56.071Z,5.90
2018-01-29T23:00:31.664Z,5.80
2018-01-29T23:02:59.096Z,5.80
2018-01-29T23:05:27.316Z,5.80
2018-01-29T23:07:54.753Z,5.80
2018-01-29T23:10:22.410Z,5.80
2018-01-29T23:12:49.832Z,5.80
2018-01-29T23:15:21.079Z,5.80
2018-01-29T23:17:50.584Z,5.80
2018-01-29T23:20:18.053Z,5.80
2018-01-29T23:22:46.248Z,5.80
2018-01-29T23:25:13.671Z,5.80
2018-01-29T23:27:41.990Z,5.80
2018-01-29T23:30:09.416Z,5.80
2018-01-29T23:32:37.636Z,5.70
2018-01-29T23:35:05.104Z,5.70
2018-01-29T23:37:32.591Z,5.70
2018-01-29T23:39:59.968Z,5.60
2018-01-29T23:42:49.022Z,5.70
2018-01-29T23:45:16.444Z,5.60
2018-01-29T23:47:43.881Z,5.70
2018-01-29T23:50:11.335Z,5.60
2018-01-29T23:52:38.792Z,5.60
2018-01-29T23:55:06.576Z,5.60
2018-01-29T23:57:34.000Z,5.60
